Big Piney, WY weather

Big Piney-Marbleton Airport (AMOS), Big Piney, WY: 7/05/2015 17:53
Visibility10 statute milessun with broken clouds
View 7-Day Forecast
Area Summary
Sky/CloudsFew at 3700ft, Scattered at 7000ft, Broken at 8500ft
Weather [last 24 hours]None [rain began 10:19; rain ended 13:45; rain began 14:19; rain ended 15:06 ]
Pressure30.2 in.Hg (1023 hPa)
3-hour Pressure Tendency0.01476 in.Hg (0.5 hPa) Steady or increasing, then decreasing; or decreasing then decreasing more rapidly
Dew Point48 F (8.9 C)
Relative Humidity50.7 %
6 Hour Precip. Rpt.0.02 in. (0.508 mm)
Last 24-Hour Precip.0.02 in. (0.508 mm)
Reading TimePrecipitation
6-hr ending 7/5@17:530.02 in. (0.508 mm)
6-hr ending 7/5@11:53Trace
Temperature66.9 F (19.4 C)red thermometer
Reading TimeMinimum to Maximum Temperature
6-hr ending 7/5@17:5357.9 F to 68 F (14.4 C to 20 C)
6-hr ending 7/5@11:5357 F to 66.9 F (13.9 C to 19.4 C)
6-hr ending 7/5@05:5355 F to 64 F (12.8 C to 17.8 C)
6-hr ending 7/4@23:5363 F to 88 F (17.2 C to 31.1 C)
24-hr ending 7/5@00:5348.9 F to 91 F (9.4 C to 32.8 C)
Wind0 MPH (0 KT) green arrow pointing at 0 degrees
Wind FromNorth (000 Degrees)
Twilight Begins05:13Sunshine Yesterday
Sunrise05:48N/A
Sunset21:02
Twilight Ends21:37
METARKBPI 052353Z AUTO 00000KT 10SM FEW037 SCT070 BKN085 19/09 A3020 RMK AO2 SLP134 60002 T01940089 10200 20144 58005
Tags: